createdAt,value
2023-01-23T00:01:46.040Z,101306.97
2023-01-23T00:04:15.613Z,101327.78
2023-01-23T00:06:45.520Z,101338.22
2023-01-23T00:09:15.041Z,101248.22
2023-01-23T00:11:43.682Z,101358.41
2023-01-23T00:14:12.561Z,101332.59
2023-01-23T00:16:41.241Z,101363.88
2023-01-23T00:19:11.363Z,101328.91
2023-01-23T00:21:40.364Z,101323.88
2023-01-23T00:24:11.734Z,101316.16
2023-01-23T00:26:41.105Z,101331.97
2023-01-23T00:29:09.765Z,101312.81
2023-01-23T00:31:40.354Z,101314.84
2023-01-23T00:34:15.126Z,101343.09
2023-01-23T00:36:45.847Z,101333.63
2023-01-23T00:39:20.315Z,101351.91
2023-01-23T00:41:50.402Z,101307.34
2023-01-23T00:44:19.243Z,101320.69
2023-01-23T00:46:48.806Z,101345.00
2023-01-23T00:49:19.116Z,101298.84
2023-01-23T00:51:48.280Z,101350.47
2023-01-23T00:54:18.264Z,101324.50
2023-01-23T00:56:47.361Z,101326.28
2023-01-23T00:59:19.453Z,101324.69
2023-01-23T01:01:48.305Z,101333.53
2023-01-23T01:04:17.531Z,101337.25
2023-01-23T01:06:46.283Z,101278.81
2023-01-23T01:09:15.217Z,101296.38
2023-01-23T01:11:45.303Z,101335.75
2023-01-23T01:14:13.930Z,101325.53
2023-01-23T01:16:47.488Z,101336.09
2023-01-23T01:19:18.784Z,101332.75
2023-01-23T01:21:47.360Z,101304.88
2023-01-23T01:24:16.102Z,101324.19
2023-01-23T01:26:45.383Z,101325.06
2023-01-23T01:29:14.208Z,101312.81
2023-01-23T01:31:44.908Z,101322.69
2023-01-23T01:34:14.723Z,101280.78
2023-01-23T01:36:44.949Z,101322.81
2023-01-23T01:39:13.638Z,101336.19
2023-01-23T01:41:43.313Z,101312.28
2023-01-23T01:44:20.855Z,101299.97
2023-01-23T01:46:52.469Z,101295.81
2023-01-23T01:49:34.341Z,101279.13
2023-01-23T01:52:07.789Z,101301.16
2023-01-23T01:54:42.101Z,101321.44
2023-01-23T01:57:19.606Z,101278.69
2023-01-23T01:59:57.589Z,101286.69
2023-01-23T02:02:34.063Z,101287.47
2023-01-23T02:05:08.404Z,101302.38
2023-01-23T02:07:47.575Z,101298.03
2023-01-23T02:10:17.648Z,101292.78
2023-01-23T02:12:49.167Z,101275.41
2023-01-23T02:15:19.177Z,101279.03
2023-01-23T02:17:49.426Z,101289.38
2023-01-23T02:20:27.971Z,101274.72
2023-01-23T02:23:22.562Z,101260.63
2023-01-23T02:26:00.202Z,101315.72
2023-01-23T02:29:02.100Z,101262.38
2023-01-23T02:31:35.837Z,101287.94
2023-01-23T02:34:06.859Z,101311.50
2023-01-23T02:36:36.573Z,101279.13
2023-01-23T02:39:11.820Z,101300.09
2023-01-23T02:41:45.761Z,101238.06
2023-01-23T02:44:30.022Z,101316.66
2023-01-23T02:47:05.022Z,101292.22
2023-01-23T02:49:33.946Z,101323.53
2023-01-23T02:52:06.680Z,101307.03
2023-01-23T02:54:37.382Z,101314.88
2023-01-23T02:57:06.040Z,101330.63
2023-01-23T02:59:53.443Z,101308.69
2023-01-23T03:02:22.426Z,101307.88
2023-01-23T03:04:51.016Z,101293.19
2023-01-23T03:07:21.300Z,101296.59
2023-01-23T03:09:50.543Z,101302.59
2023-01-23T03:12:19.335Z,101150.44
2023-01-23T03:14:55.012Z,101270.25
2023-01-23T03:17:23.953Z,101309.63
2023-01-23T03:19:53.880Z,101300.13
2023-01-23T03:22:22.643Z,101332.34
2023-01-23T03:24:51.711Z,101344.53
2023-01-23T03:27:23.661Z,101283.50
2023-01-23T03:30:14.199Z,101323.72
2023-01-23T03:32:45.084Z,101331.78
2023-01-23T03:35:17.438Z,101327.47
2023-01-23T03:37:47.206Z,101315.06
2023-01-23T03:40:41.627Z,101343.16
2023-01-23T03:43:12.112Z,101343.06
2023-01-23T03:45:46.046Z,101311.59
2023-01-23T03:48:14.634Z,101316.88
2023-01-23T03:50:45.600Z,101327.44
2023-01-23T03:53:14.223Z,101260.88
2023-01-23T03:55:45.612Z,101351.19
2023-01-23T03:58:14.643Z,101297.09
2023-01-23T04:00:46.029Z,101346.81
2023-01-23T04:03:17.727Z,101327.69
2023-01-23T04:05:46.561Z,101326.00
2023-01-23T04:08:16.769Z,101351.34
2023-01-23T04:10:45.541Z,101301.66
2023-01-23T04:13:17.903Z,101345.41
2023-01-23T04:15:46.509Z,101336.56
2023-01-23T04:18:16.752Z,101343.56
2023-01-23T04:20:45.632Z,101333.19
2023-01-23T04:23:15.222Z,101273.00
2023-01-23T04:25:44.334Z,101339.63
2023-01-23T04:28:15.804Z,101356.25
2023-01-23T04:30:45.528Z,101314.28
2023-01-23T04:33:22.966Z,101343.34
2023-01-23T04:36:00.168Z,101295.34
2023-01-23T04:38:31.489Z,101275.34
2023-01-23T04:41:25.201Z,101264.19
2023-01-23T04:44:20.781Z,101319.28
2023-01-23T04:47:07.941Z,101330.88
2023-01-23T04:49:36.560Z,101246.38
2023-01-23T04:52:06.264Z,101327.56
2023-01-23T04:54:39.124Z,101343.25
2023-01-23T04:57:08.081Z,101331.16
2023-01-23T04:59:36.688Z,101317.31
2023-01-23T05:02:05.627Z,101341.84
2023-01-23T05:04:40.841Z,101345.38
2023-01-23T05:07:12.722Z,101358.38
2023-01-23T05:09:46.900Z,101242.44
2023-01-23T05:12:17.233Z,101338.66
2023-01-23T05:14:46.002Z,101330.03
2023-01-23T05:17:14.661Z,101311.69
2023-01-23T05:19:48.308Z,101335.38
2023-01-23T05:22:18.660Z,101366.06
2023-01-23T05:24:47.464Z,101347.91
2023-01-23T05:27:17.449Z,101371.66
2023-01-23T05:29:48.813Z,101296.59
2023-01-23T05:32:22.796Z,101352.69
2023-01-23T05:34:56.401Z,101278.59
2023-01-23T05:37:28.310Z,101359.88
2023-01-23T05:40:12.051Z,101368.75
2023-01-23T05:43:07.549Z,101347.84
2023-01-23T05:46:14.554Z,101368.78
2023-01-23T05:48:51.732Z,101373.25
2023-01-23T05:51:23.095Z,101354.94
2023-01-23T05:53:52.452Z,101347.13
2023-01-23T05:56:21.112Z,101359.44
2023-01-23T05:59:10.417Z,101341.09
2023-01-23T06:01:51.163Z,101375.16
2023-01-23T06:04:38.281Z,101372.53
2023-01-23T06:07:21.334Z,101307.88
2023-01-23T06:09:53.348Z,101325.56
2023-01-23T06:12:24.391Z,101352.69
2023-01-23T06:14:53.118Z,101332.66
2023-01-23T06:17:21.754Z,101345.91
2023-01-23T06:19:50.588Z,101379.97
2023-01-23T06:22:19.607Z,101343.22
2023-01-23T06:25:00.633Z,101350.22
2023-01-23T06:27:29.725Z,101362.41
2023-01-23T06:29:59.196Z,101307.34
2023-01-23T06:32:27.785Z,101367.75
2023-01-23T06:34:56.538Z,101362.66
2023-01-23T06:37:25.182Z,101366.16
2023-01-23T06:39:57.328Z,101375.00
2023-01-23T06:42:25.924Z,101367.31
2023-01-23T06:44:54.786Z,101374.38
2023-01-23T06:47:26.040Z,101354.41
2023-01-23T06:50:02.666Z,101368.28
2023-01-23T06:52:34.822Z,101370.03
2023-01-23T06:55:04.038Z,101381.38
2023-01-23T06:57:35.291Z,101389.91
2023-01-23T07:00:05.993Z,101399.56
2023-01-23T07:02:35.130Z,101391.75
2023-01-23T07:05:03.675Z,101384.94
2023-01-23T07:07:32.496Z,101373.66
2023-01-23T07:10:01.173Z,101377.19
2023-01-23T07:12:30.568Z,101391.38
2023-01-23T07:14:59.216Z,101386.13
2023-01-23T07:17:35.048Z,101408.06
2023-01-23T07:20:03.490Z,101399.31
2023-01-23T07:22:34.666Z,101224.75
2023-01-23T07:25:03.097Z,101393.47
2023-01-23T07:27:31.737Z,101394.31
2023-01-23T07:30:00.343Z,101389.84
2023-01-23T07:32:29.100Z,101397.81
2023-01-23T07:34:57.837Z,101388.25
2023-01-23T07:37:26.421Z,101390.91
2023-01-23T07:39:55.126Z,101412.56
2023-01-23T07:42:24.359Z,101383.69
2023-01-23T07:44:53.839Z,101390.63
2023-01-23T07:47:22.520Z,101399.38
2023-01-23T07:49:51.178Z,101387.13
2023-01-23T07:52:19.981Z,101385.50
2023-01-23T07:54:48.581Z,101396.81
2023-01-23T07:57:17.276Z,101401.00
2023-01-23T07:59:45.630Z,101407.16
2023-01-23T08:02:14.353Z,101399.44
2023-01-23T08:04:42.969Z,101304.84
2023-01-23T08:07:11.820Z,101401.75
2023-01-23T08:09:41.240Z,101400.84
2023-01-23T08:12:09.930Z,101345.78
2023-01-23T08:14:38.498Z,101404.44
2023-01-23T08:17:07.158Z,101412.22
2023-01-23T08:19:35.871Z,101405.34
2023-01-23T08:22:04.527Z,101399.19
2023-01-23T08:24:33.752Z,101412.22
2023-01-23T08:27:02.651Z,101414.84
2023-01-23T08:29:32.528Z,101388.53
2023-01-23T08:32:04.417Z,101400.78
2023-01-23T08:34:33.412Z,101406.81
2023-01-23T08:37:01.992Z,101402.44
2023-01-23T08:39:30.760Z,101414.75
2023-01-23T08:41:59.514Z,101426.06
2023-01-23T08:44:28.407Z,101406.63
2023-01-23T08:46:56.917Z,101382.13
2023-01-23T08:49:25.608Z,101398.75
2023-01-23T08:51:54.216Z,101410.94
2023-01-23T08:54:22.669Z,101403.91
2023-01-23T08:56:51.386Z,101433.56
2023-01-23T08:59:20.138Z,101408.22
2023-01-23T09:01:48.810Z,101415.97
2023-01-23T09:04:18.367Z,101402.03
2023-01-23T09:06:46.911Z,101417.81
2023-01-23T09:09:15.667Z,101422.13
2023-01-23T09:11:44.330Z,101423.75
2023-01-23T09:14:12.970Z,101421.00
2023-01-23T09:16:42.170Z,101434.94
2023-01-23T09:19:12.923Z,101412.34
2023-01-23T09:21:41.488Z,101427.19
2023-01-23T09:24:10.244Z,101416.69
2023-01-23T09:26:38.830Z,101437.50
2023-01-23T09:29:07.715Z,101368.50
2023-01-23T09:31:36.253Z,101415.69
2023-01-23T09:34:05.049Z,101373.72
2023-01-23T09:36:42.429Z,101429.56
2023-01-23T09:39:12.439Z,101427.56
2023-01-23T09:41:44.939Z,101435.41
2023-01-23T09:44:27.102Z,101457.19
2023-01-23T09:47:14.366Z,101446.56
2023-01-23T09:49:50.162Z,101463.16
2023-01-23T09:52:28.680Z,101431.88
2023-01-23T09:55:26.779Z,101466.66
2023-01-23T09:58:04.302Z,101464.69
2023-01-23T10:00:34.910Z,101460.31
2023-01-23T10:03:12.387Z,101393.72
2023-01-23T10:05:43.834Z,101476.63
2023-01-23T10:08:43.377Z,101473.94
2023-01-23T10:11:30.200Z,101469.53
2023-01-23T10:14:26.846Z,101401.88
2023-01-23T10:16:58.116Z,101473.69
2023-01-23T10:19:40.300Z,101475.34
2023-01-23T10:22:23.173Z,101454.22
2023-01-23T10:24:54.915Z,101465.59
2023-01-23T10:27:45.127Z,101464.75
2023-01-23T10:30:23.403Z,101458.56
2023-01-23T10:32:59.229Z,101475.19
2023-01-23T10:35:41.615Z,101460.31
2023-01-23T10:38:54.597Z,101477.69
2023-01-23T10:41:23.915Z,101466.19
2023-01-23T10:43:55.061Z,101457.47
2023-01-23T10:46:38.850Z,101479.28
2023-01-23T10:49:07.980Z,101471.44
2023-01-23T10:51:50.788Z,101474.94
2023-01-23T10:54:33.466Z,101444.13
2023-01-23T10:57:05.650Z,101402.09
2023-01-23T10:59:41.728Z,101445.13
2023-01-23T11:02:15.870Z,101471.34
2023-01-23T11:04:47.572Z,101449.38
2023-01-23T11:07:18.239Z,101483.34
2023-01-23T11:09:56.156Z,101385.38
2023-01-23T11:12:33.608Z,101444.94
2023-01-23T11:15:24.433Z,101449.25
2023-01-23T11:17:55.066Z,101450.72
2023-01-23T11:20:52.735Z,101479.59
2023-01-23T11:23:21.551Z,101443.81
2023-01-23T11:25:52.813Z,101475.16
2023-01-23T11:28:37.131Z,101468.28
2023-01-23T11:31:20.027Z,101489.81
2023-01-23T11:34:10.668Z,101477.38
2023-01-23T11:37:13.350Z,101443.25
2023-01-23T11:39:52.203Z,101487.72
2023-01-23T11:42:21.615Z,101486.06
2023-01-23T11:44:51.863Z,101455.47
2023-01-23T11:47:35.947Z,101491.41
2023-01-23T11:50:26.137Z,101503.50
2023-01-23T11:53:07.128Z,101506.94
2023-01-23T11:55:44.749Z,101495.75
2023-01-23T11:58:22.064Z,101516.53
2023-01-23T12:01:22.592Z,101513.03
2023-01-23T12:04:18.863Z,101516.47
2023-01-23T12:06:53.178Z,101495.47
2023-01-23T12:09:23.441Z,101489.47
2023-01-23T12:12:23.552Z,101512.19
2023-01-23T12:15:12.743Z,101512.00
2023-01-23T12:18:04.625Z,101506.75
2023-01-23T12:20:55.217Z,101521.41
2023-01-23T12:23:47.399Z,101496.19
2023-01-23T12:26:23.160Z,101498.06
2023-01-23T12:29:10.264Z,101508.69
2023-01-23T12:31:41.698Z,101518.19
2023-01-23T12:34:22.230Z,101518.13
2023-01-23T12:37:12.355Z,101506.94
2023-01-23T12:40:05.285Z,101508.69
2023-01-23T12:43:10.981Z,101509.50
2023-01-23T12:45:49.868Z,101479.56
2023-01-23T12:48:30.309Z,101508.50
2023-01-23T12:51:12.261Z,101527.72
2023-01-23T12:53:45.414Z,101501.69
2023-01-23T12:56:43.491Z,101511.34
2023-01-23T12:59:38.832Z,101512.25
2023-01-23T13:02:34.315Z,101512.25
2023-01-23T13:05:24.789Z,101520.03
2023-01-23T13:08:04.016Z,101524.41
2023-01-23T13:11:03.120Z,101500.00
2023-01-23T13:13:32.563Z,101513.22
2023-01-23T13:16:19.174Z,101500.84
2023-01-23T13:19:17.628Z,101508.63
2023-01-23T13:22:22.454Z,101504.41
2023-01-23T13:25:19.073Z,101501.00
2023-01-23T13:27:53.653Z,101511.47
2023-01-23T13:30:32.428Z,101521.16
2023-01-23T13:33:22.280Z,101493.16
2023-01-23T13:35:51.442Z,101524.63
2023-01-23T13:38:23.003Z,101519.50
2023-01-23T13:41:06.465Z,101532.47
2023-01-23T13:43:55.335Z,101526.34
2023-01-23T13:46:38.909Z,101533.44
2023-01-23T14:21:58.891Z,101530.56
2023-01-23T14:30:25.690Z,101550.78
2023-01-23T14:32:54.559Z,101523.66
2023-01-23T14:35:32.150Z,101559.44
2023-01-23T14:38:05.928Z,101548.25
2023-01-23T14:40:49.302Z,101460.72
2023-01-23T14:43:23.305Z,101522.00
2023-01-23T14:46:38.107Z,101552.59
2023-01-23T14:49:10.214Z,101542.16
2023-01-23T14:51:39.082Z,101540.41
2023-01-23T14:54:22.970Z,101455.19
2023-01-23T14:56:53.875Z,101533.34
2023-01-23T14:59:30.744Z,101540.38
2023-01-23T15:02:13.143Z,101545.75
2023-01-23T15:05:08.504Z,101509.44
2023-01-23T15:07:45.641Z,101479.00
2023-01-23T15:10:23.549Z,101550.00
2023-01-23T15:13:05.873Z,101552.69
2023-01-23T15:15:36.026Z,101534.28
2023-01-23T15:18:20.491Z,101553.97
2023-01-23T15:20:57.472Z,101538.63
2023-01-23T15:23:32.438Z,101556.13
2023-01-23T15:26:25.916Z,101540.47
2023-01-23T15:29:02.088Z,101529.09
2023-01-23T15:31:54.149Z,101518.59
2023-01-23T15:34:31.785Z,101557.06
2023-01-23T15:37:20.891Z,101530.78
2023-01-23T15:40:05.095Z,101545.75
2023-01-23T15:42:35.557Z,101549.09
2023-01-23T15:45:14.207Z,101510.50
2023-01-23T15:47:42.684Z,101539.88
2023-01-23T15:50:14.149Z,101556.25
2023-01-23T15:52:47.020Z,101547.38
2023-01-23T15:55:18.983Z,101521.69
2023-01-23T15:57:47.649Z,101524.13
2023-01-23T16:00:19.232Z,101539.81
2023-01-23T16:02:56.096Z,101544.16
2023-01-23T16:05:35.884Z,101528.84
2023-01-23T16:08:07.083Z,101533.28
2023-01-23T16:10:39.043Z,101495.50
2023-01-23T16:13:08.674Z,101533.28
2023-01-23T16:15:40.234Z,101558.81
2023-01-23T16:18:09.028Z,101545.78
2023-01-23T16:20:42.153Z,101556.44
2023-01-23T16:23:35.760Z,101537.31
2023-01-23T16:26:22.888Z,101528.72
2023-01-23T16:28:52.846Z,101534.97
2023-01-23T16:31:26.074Z,101571.53
2023-01-23T16:33:54.915Z,101499.94
2023-01-23T16:36:23.540Z,101549.09
2023-01-23T16:38:56.659Z,101532.53
2023-01-23T16:41:25.400Z,101544.94
2023-01-23T16:43:53.919Z,101538.59
2023-01-23T16:46:22.688Z,101559.06
2023-01-23T16:48:54.375Z,101481.97
2023-01-23T16:51:26.040Z,101491.69
2023-01-23T16:54:00.723Z,101496.97
2023-01-23T16:56:42.163Z,101555.63
2023-01-23T16:59:20.855Z,101558.31
2023-01-23T17:01:52.304Z,101489.28
2023-01-23T17:04:22.443Z,101494.50
2023-01-23T17:06:51.467Z,101562.97
2023-01-23T17:09:20.319Z,101568.97
2023-01-23T17:11:55.221Z,101533.19
2023-01-23T17:14:31.617Z,101535.09
2023-01-23T17:17:19.701Z,101556.09
2023-01-23T17:19:48.365Z,101557.00
2023-01-23T17:22:25.620Z,101568.25
2023-01-23T17:24:56.943Z,101557.69
2023-01-23T17:27:25.519Z,101556.03
2023-01-23T17:29:53.794Z,101545.53
2023-01-23T17:32:30.164Z,101483.53
2023-01-23T17:35:02.874Z,101481.81
2023-01-23T17:37:32.017Z,101522.91
2023-01-23T17:40:00.715Z,101562.13
2023-01-23T17:42:29.534Z,101529.84
2023-01-23T17:44:57.917Z,101569.09
2023-01-23T17:47:29.346Z,101520.06
2023-01-23T17:49:58.845Z,101546.28
2023-01-23T17:52:30.267Z,101448.25
2023-01-23T17:54:58.993Z,101514.78
2023-01-23T17:57:27.611Z,101558.59
2023-01-23T17:59:56.651Z,101479.69
2023-01-23T18:02:28.689Z,101559.31
2023-01-23T18:05:01.303Z,101555.72
2023-01-23T18:07:29.920Z,101546.16
2023-01-23T18:09:58.427Z,101536.69
2023-01-23T18:12:45.825Z,101546.22
2023-01-23T18:15:19.946Z,101555.75
2023-01-23T18:18:03.953Z,101550.56
2023-01-23T18:20:33.643Z,101474.28
2023-01-23T18:23:02.691Z,101526.78
2023-01-23T18:25:31.726Z,101521.69
2023-01-23T18:28:05.375Z,101518.09
2023-01-23T18:30:47.464Z,101533.81
2023-01-23T18:33:31.110Z,101547.78
2023-01-23T18:36:08.802Z,101546.84
2023-01-23T18:39:06.927Z,101551.13
2023-01-23T18:41:35.643Z,101553.66
2023-01-23T18:44:08.652Z,101562.47
2023-01-23T18:46:37.434Z,101558.03
2023-01-23T18:49:06.460Z,101554.53
2023-01-23T18:51:43.428Z,101558.03
2023-01-23T18:54:39.068Z,101557.31
2023-01-23T18:57:36.384Z,101499.34
2023-01-23T19:00:29.761Z,101557.88
2023-01-23T19:03:05.738Z,101552.84
2023-01-23T19:05:35.370Z,101561.66
2023-01-23T19:08:04.422Z,101549.34
2023-01-23T19:10:48.543Z,101531.06
2023-01-23T19:13:22.122Z,101561.56
2023-01-23T19:16:34.346Z,101534.56
2023-01-23T19:19:29.828Z,101536.38
2023-01-23T19:21:58.665Z,101550.31
2023-01-23T19:24:28.446Z,101554.72
2023-01-23T19:26:57.488Z,101481.13
2023-01-23T19:29:26.382Z,101549.47
2023-01-23T19:32:04.793Z,101555.66
2023-01-23T19:34:35.055Z,101546.88
2023-01-23T19:37:04.457Z,101570.34
2023-01-23T19:39:33.114Z,101523.84
2023-01-23T19:42:02.089Z,101550.38
2023-01-23T19:44:31.867Z,101538.75
2023-01-23T19:47:00.630Z,101541.56
2023-01-23T19:49:29.479Z,101577.38
2023-01-23T19:51:58.282Z,101571.34
2023-01-23T19:54:27.001Z,101546.75
2023-01-23T19:56:55.606Z,101525.75
2023-01-23T19:59:25.849Z,101537.28
2023-01-23T20:01:55.065Z,101565.25
2023-01-23T20:04:24.623Z,101572.13
2023-01-23T20:06:53.836Z,101566.00
2023-01-23T20:09:22.653Z,101531.84
2023-01-23T20:11:52.983Z,101531.72
2023-01-23T20:14:23.358Z,101536.31
2023-01-23T20:16:52.262Z,101556.38
2023-01-23T20:19:20.874Z,101564.31
2023-01-23T20:21:50.168Z,101564.16
2023-01-23T20:24:19.104Z,101536.31
2023-01-23T20:26:48.031Z,101527.50
2023-01-23T20:29:16.867Z,101485.50
2023-01-23T20:31:45.792Z,101557.13
2023-01-23T20:34:14.807Z,101562.56
2023-01-23T20:36:43.794Z,101560.81
2023-01-23T20:39:15.970Z,101545.13
2023-01-23T20:41:44.804Z,101548.53
2023-01-23T20:44:13.739Z,101529.31
2023-01-23T20:46:42.523Z,101527.63
2023-01-23T20:49:15.101Z,101524.13
2023-01-23T20:51:44.054Z,101512.72
2023-01-23T20:54:12.925Z,101518.78
2023-01-23T20:56:41.963Z,101551.09
2023-01-23T20:59:19.764Z,101466.34
2023-01-23T21:02:07.462Z,101534.38
2023-01-23T21:04:37.466Z,101554.53
2023-01-23T21:07:06.373Z,101530.09
2023-01-23T21:09:35.026Z,101525.03
2023-01-23T21:12:03.829Z,101512.53
2023-01-23T21:14:32.601Z,101534.50
2023-01-23T21:17:01.074Z,101558.06
2023-01-23T21:19:29.725Z,101546.88
2023-01-23T21:21:58.365Z,101534.66
2023-01-23T21:24:27.421Z,101505.88
2023-01-23T21:26:56.122Z,101516.38
2023-01-23T21:29:24.790Z,101518.03
2023-01-23T21:31:53.490Z,101525.94
2023-01-23T21:34:22.200Z,101496.09
2023-01-23T21:36:50.969Z,101545.00
2023-01-23T21:39:20.063Z,101479.41
2023-01-23T21:41:48.602Z,101532.06
2023-01-23T21:44:16.919Z,101530.22
2023-01-23T21:46:47.721Z,101527.63
2023-01-23T21:49:16.243Z,101512.81
2023-01-23T21:51:45.774Z,101494.34
2023-01-23T21:54:14.560Z,101505.81
2023-01-23T21:56:43.256Z,101453.13
2023-01-23T21:59:14.642Z,101445.94
2023-01-23T22:01:43.407Z,101513.50
2023-01-23T22:04:22.877Z,101533.66
2023-01-23T22:06:57.039Z,101530.16
2023-01-23T22:09:26.803Z,101529.19
2023-01-23T22:11:56.440Z,101520.59
2023-01-23T22:14:25.217Z,101523.16
2023-01-23T22:16:54.247Z,101520.44
2023-01-23T22:19:25.590Z,101532.88
2023-01-23T22:21:58.051Z,101542.97
2023-01-23T22:24:27.104Z,101528.34
2023-01-23T22:26:55.749Z,101516.16
2023-01-23T22:29:24.620Z,101515.25
2023-01-23T22:31:53.533Z,101534.63
2023-01-23T22:34:22.319Z,101496.09
2023-01-23T22:36:50.937Z,101518.81
2023-01-23T22:39:25.260Z,101471.59
2023-01-23T22:41:54.037Z,101501.47
2023-01-23T22:44:22.831Z,101515.59
2023-01-23T22:46:52.248Z,101506.84
2023-01-23T22:49:21.161Z,101509.50
2023-01-23T22:51:50.300Z,101508.69
2023-01-23T22:54:18.800Z,101462.22
2023-01-23T22:56:47.658Z,101505.09
2023-01-23T22:59:16.834Z,101454.31
2023-01-23T23:01:45.657Z,101499.75
2023-01-23T23:04:14.430Z,101478.66
2023-01-23T23:06:43.125Z,101498.72
2023-01-23T23:09:11.964Z,101470.81
2023-01-23T23:11:41.126Z,101502.03
2023-01-23T23:14:11.642Z,101487.22
2023-01-23T23:16:41.678Z,101494.16
2023-01-23T23:19:11.010Z,101463.47
2023-01-23T23:21:40.142Z,101488.69
2023-01-23T23:24:14.119Z,101496.56
2023-01-23T23:26:43.078Z,101506.81
2023-01-23T23:29:11.798Z,101437.84
2023-01-23T23:31:40.798Z,101466.81
2023-01-23T23:34:09.899Z,101495.59
2023-01-23T23:36:38.458Z,101479.81
2023-01-23T23:39:07.188Z,101464.84
2023-01-23T23:41:36.320Z,101422.84
2023-01-23T23:44:07.391Z,101473.50
2023-01-23T23:46:36.037Z,101470.13
2023-01-23T23:49:04.678Z,101467.50
2023-01-23T23:51:33.336Z,101485.81
2023-01-23T23:54:02.093Z,101431.47
2023-01-23T23:56:32.865Z,101481.25
2023-01-23T23:59:01.482Z,101489.75
